createdAt,value
2023-05-13T00:00:07.954Z,416.00
2023-05-13T00:01:08.102Z,416.00
2023-05-13T00:02:08.216Z,418.00
2023-05-13T00:03:08.435Z,417.00
2023-05-13T00:04:08.493Z,414.00
2023-05-13T00:05:08.607Z,415.00
2023-05-13T00:06:08.798Z,413.00
2023-05-13T00:07:08.861Z,410.00
2023-05-13T00:08:08.994Z,408.00
2023-05-13T00:09:09.157Z,406.00
2023-05-13T00:10:09.310Z,406.00
2023-05-13T00:11:09.382Z,405.00
2023-05-13T00:12:09.509Z,407.00
2023-05-13T00:13:09.634Z,407.00
2023-05-13T00:14:09.877Z,407.00
2023-05-13T00:15:09.940Z,408.00
2023-05-13T00:16:10.176Z,407.00
2023-05-13T00:17:10.213Z,406.00
2023-05-13T00:18:10.324Z,406.00
2023-05-13T00:19:10.602Z,407.00
2023-05-13T00:20:10.574Z,410.00
2023-05-13T00:21:10.705Z,410.00
2023-05-13T00:22:10.843Z,412.00
2023-05-13T00:23:10.965Z,413.00
2023-05-13T00:24:11.089Z,414.00
2023-05-13T00:25:11.201Z,416.00
2023-05-13T00:26:11.314Z,414.00
2023-05-13T00:27:11.493Z,415.00
2023-05-13T00:28:11.561Z,418.00
2023-05-13T00:29:11.649Z,419.00
2023-05-13T00:30:11.780Z,418.00
2023-05-13T00:31:11.908Z,421.00
2023-05-13T00:32:12.075Z,418.00
2023-05-13T00:33:12.178Z,417.00
2023-05-13T00:34:12.255Z,417.00
2023-05-13T00:35:12.481Z,415.00
2023-05-13T00:36:12.540Z,415.00
2023-05-13T00:37:12.728Z,414.00
2023-05-13T00:38:12.846Z,414.00
2023-05-13T00:39:13.035Z,415.00
2023-05-13T00:40:13.090Z,415.00
2023-05-13T00:41:13.283Z,421.00
2023-05-13T00:42:13.437Z,419.00
2023-05-13T00:43:13.458Z,414.00
2023-05-13T00:44:14.607Z,413.00
2023-05-13T00:45:13.617Z,413.00
2023-05-13T00:46:13.673Z,414.00
2023-05-13T00:47:13.642Z,430.00
2023-05-13T00:48:13.677Z,426.00
2023-05-13T00:49:13.673Z,425.00
2023-05-13T00:50:13.664Z,421.00
2023-05-13T00:51:13.693Z,419.00
2023-05-13T00:52:13.637Z,409.00
2023-05-13T00:53:13.633Z,406.00
2023-05-13T00:54:13.620Z,410.00
2023-05-13T00:55:13.629Z,412.00
2023-05-13T00:56:13.651Z,411.00
2023-05-13T00:57:13.664Z,408.00
2023-05-13T00:58:13.667Z,406.00
2023-05-13T00:59:13.657Z,408.00
2023-05-13T01:00:13.667Z,410.00
2023-05-13T01:01:13.721Z,409.00
2023-05-13T01:02:13.752Z,410.00
2023-05-13T01:03:13.858Z,411.00
2023-05-13T01:04:13.769Z,413.00
2023-05-13T01:05:13.777Z,412.00
2023-05-13T01:06:13.781Z,414.00
2023-05-13T01:07:13.788Z,415.00
2023-05-13T01:08:13.833Z,418.00
2023-05-13T01:09:13.861Z,417.00
2023-05-13T01:10:13.906Z,418.00
2023-05-13T01:11:13.901Z,417.00
2023-05-13T01:12:13.904Z,415.00
2023-05-13T01:13:13.913Z,414.00
2023-05-13T01:14:13.916Z,413.00
2023-05-13T01:15:13.918Z,415.00
2023-05-13T01:16:13.971Z,415.00
2023-05-13T01:17:13.950Z,412.00
2023-05-13T01:18:13.959Z,412.00
2023-05-13T01:19:14.097Z,412.00
2023-05-13T01:20:13.961Z,413.00
2023-05-13T01:21:13.965Z,416.00
2023-05-13T01:22:14.021Z,416.00
2023-05-13T01:23:14.046Z,415.00
2023-05-13T01:24:14.060Z,415.00
2023-05-13T01:25:14.126Z,414.00
2023-05-13T01:26:14.078Z,415.00
2023-05-13T01:27:14.039Z,416.00
2023-05-13T01:28:14.063Z,416.00
2023-05-13T01:29:13.990Z,414.00
2023-05-13T01:30:13.970Z,415.00
2023-05-13T01:31:14.005Z,416.00
2023-05-13T01:32:13.931Z,415.00
2023-05-13T01:33:13.874Z,414.00
2023-05-13T01:34:13.851Z,412.00
2023-05-13T01:35:13.834Z,412.00
2023-05-13T01:36:13.807Z,410.00
2023-05-13T01:37:13.772Z,409.00
2023-05-13T01:38:13.762Z,410.00
2023-05-13T01:39:13.721Z,409.00
2023-05-13T01:40:28.034Z,411.00
2023-05-13T01:41:14.678Z,410.00
2023-05-13T01:42:13.647Z,411.00
2023-05-13T01:43:13.633Z,410.00
2023-05-13T01:44:13.610Z,412.00
2023-05-13T01:45:13.578Z,415.00
2023-05-13T01:46:13.577Z,417.00
2023-05-13T01:47:13.581Z,417.00
2023-05-13T01:48:13.519Z,418.00
2023-05-13T01:49:13.518Z,422.00
2023-05-13T01:50:13.560Z,420.00
2023-05-13T01:51:13.605Z,420.00
2023-05-13T01:52:13.657Z,418.00
2023-05-13T01:53:13.712Z,419.00
2023-05-13T01:54:13.743Z,415.00
2023-05-13T01:55:13.810Z,415.00
2023-05-13T01:56:13.842Z,417.00
2023-05-13T01:57:13.900Z,420.00
2023-05-13T01:58:13.952Z,421.00
2023-05-13T01:59:13.982Z,420.00
2023-05-13T02:00:14.052Z,422.00
2023-05-13T02:01:14.077Z,421.00
2023-05-13T02:02:14.192Z,421.00
2023-05-13T02:03:14.343Z,422.00
2023-05-13T02:04:14.224Z,422.00
2023-05-13T02:05:14.270Z,421.00
2023-05-13T02:06:14.322Z,420.00
2023-05-13T02:07:14.343Z,419.00
2023-05-13T02:08:14.430Z,414.00
2023-05-13T02:09:14.422Z,412.00
2023-05-13T02:10:14.464Z,410.00
2023-05-13T02:11:14.490Z,409.00
2023-05-13T02:12:14.482Z,408.00
2023-05-13T02:13:14.472Z,405.00
2023-05-13T02:14:14.470Z,407.00
2023-05-13T02:15:14.454Z,406.00
2023-05-13T02:16:14.505Z,406.00
2023-05-13T02:17:14.511Z,407.00
2023-05-13T02:18:14.570Z,408.00
2023-05-13T02:19:14.554Z,409.00
2023-05-13T02:20:14.600Z,406.00
2023-05-13T02:21:14.597Z,405.00
2023-05-13T02:22:14.630Z,406.00
2023-05-13T02:23:14.646Z,404.00
2023-05-13T02:24:14.665Z,404.00
2023-05-13T02:25:14.695Z,404.00
2023-05-13T02:26:14.683Z,403.00
2023-05-13T02:27:14.675Z,405.00
2023-05-13T02:28:14.654Z,410.00
2023-05-13T02:29:14.658Z,409.00
2023-05-13T02:30:14.676Z,410.00
2023-05-13T02:31:14.631Z,409.00
2023-05-13T02:32:14.773Z,410.00
2023-05-13T02:33:14.652Z,413.00
2023-05-13T02:34:14.616Z,414.00
2023-05-13T02:35:14.606Z,414.00
2023-05-13T02:36:14.581Z,414.00
2023-05-13T02:37:14.566Z,413.00
2023-05-13T02:38:14.581Z,412.00
2023-05-13T02:39:14.556Z,411.00
2023-05-13T02:40:14.544Z,410.00
2023-05-13T02:41:14.530Z,410.00
2023-05-13T02:42:14.516Z,411.00
2023-05-13T02:43:14.509Z,409.00
2023-05-13T02:44:14.531Z,411.00
2023-05-13T02:45:14.494Z,411.00
2023-05-13T02:46:14.505Z,410.00
2023-05-13T02:47:14.467Z,410.00
2023-05-13T02:48:14.458Z,410.00
2023-05-13T02:49:14.467Z,410.00
2023-05-13T02:50:14.452Z,413.00
2023-05-13T02:51:14.486Z,410.00
2023-05-13T02:52:14.556Z,410.00
2023-05-13T02:53:14.502Z,411.00
2023-05-13T02:54:14.493Z,412.00
2023-05-13T02:55:14.489Z,413.00
2023-05-13T02:56:14.462Z,412.00
2023-05-13T02:57:14.459Z,410.00
2023-05-13T02:58:14.447Z,408.00
2023-05-13T02:59:14.438Z,407.00
2023-05-13T03:00:14.425Z,406.00
2023-05-13T03:01:14.445Z,407.00
2023-05-13T03:02:14.454Z,408.00
2023-05-13T03:03:14.483Z,408.00
2023-05-13T03:04:14.397Z,410.00
2023-05-13T03:05:14.383Z,409.00
2023-05-13T03:06:14.379Z,408.00
2023-05-13T03:07:14.375Z,406.00
2023-05-13T03:08:14.367Z,406.00
2023-05-13T03:09:14.379Z,407.00
2023-05-13T03:10:14.366Z,407.00
2023-05-13T03:11:14.468Z,408.00
2023-05-13T03:12:14.467Z,407.00
2023-05-13T03:13:14.461Z,405.00
2023-05-13T03:14:14.602Z,405.00
2023-05-13T03:15:14.735Z,406.00
2023-05-13T03:16:14.930Z,406.00
2023-05-13T03:17:14.985Z,407.00
2023-05-13T03:18:15.124Z,407.00
2023-05-13T03:19:15.515Z,405.00
2023-05-13T03:20:15.514Z,406.00
2023-05-13T03:21:15.688Z,405.00
2023-05-13T03:22:15.828Z,404.00
2023-05-13T03:23:15.939Z,407.00
2023-05-13T03:24:16.074Z,408.00
2023-05-13T03:25:16.229Z,409.00
2023-05-13T03:26:16.456Z,410.00
2023-05-13T03:27:16.569Z,411.00
2023-05-13T03:28:16.776Z,411.00
2023-05-13T03:29:16.822Z,410.00
2023-05-13T03:30:17.005Z,411.00
2023-05-13T03:31:17.222Z,412.00
2023-05-13T03:32:17.285Z,416.00
2023-05-13T03:33:17.540Z,416.00
2023-05-13T03:34:17.580Z,415.00
2023-05-13T03:35:17.821Z,416.00
2023-05-13T03:36:17.878Z,414.00
2023-05-13T03:37:18.148Z,412.00
2023-05-13T03:38:18.316Z,410.00
2023-05-13T03:39:18.497Z,410.00
2023-05-13T03:40:18.801Z,414.00
2023-05-13T03:41:18.809Z,414.00
2023-05-13T03:42:18.933Z,415.00
2023-05-13T03:43:19.080Z,416.00
2023-05-13T03:44:19.221Z,415.00
2023-05-13T03:45:19.364Z,411.00
2023-05-13T03:46:19.579Z,410.00
2023-05-13T03:47:19.651Z,409.00
2023-05-13T03:48:19.797Z,410.00
2023-05-13T03:49:19.932Z,410.00
2023-05-13T03:50:20.278Z,410.00
2023-05-13T03:51:20.116Z,411.00
2023-05-13T03:52:20.104Z,411.00
2023-05-13T03:53:20.119Z,411.00
2023-05-13T03:54:20.115Z,412.00
2023-05-13T03:55:20.106Z,412.00
2023-05-13T03:56:20.117Z,412.00
2023-05-13T03:57:20.215Z,410.00
2023-05-13T03:58:20.358Z,411.00
2023-05-13T03:59:20.502Z,411.00
2023-05-13T04:00:20.826Z,410.00
2023-05-13T04:01:20.789Z,409.00
2023-05-13T04:02:21.007Z,409.00
2023-05-13T04:03:21.146Z,410.00
2023-05-13T04:04:21.206Z,412.00
2023-05-13T04:05:21.378Z,413.00
2023-05-13T04:06:21.497Z,412.00
2023-05-13T04:07:21.712Z,412.00
2023-05-13T04:08:21.790Z,415.00
2023-05-13T04:09:21.955Z,416.00
2023-05-13T04:10:22.176Z,418.00
2023-05-13T04:11:22.206Z,418.00
2023-05-13T04:12:22.343Z,418.00
2023-05-13T04:13:22.495Z,418.00
2023-05-13T04:14:22.658Z,421.00
2023-05-13T04:15:22.785Z,420.00
2023-05-13T04:16:23.030Z,419.00
2023-05-13T04:17:23.168Z,417.00
2023-05-13T04:18:23.299Z,416.00
2023-05-13T04:19:23.433Z,417.00
2023-05-13T04:20:23.756Z,416.00
2023-05-13T04:21:23.827Z,416.00
2023-05-13T04:22:23.953Z,418.00
2023-05-13T04:23:24.128Z,417.00
2023-05-13T04:24:24.300Z,416.00
2023-05-13T04:25:24.460Z,417.00
2023-05-13T04:26:24.628Z,415.00
2023-05-13T04:27:24.803Z,414.00
2023-05-13T04:28:24.968Z,413.00
2023-05-13T04:29:25.121Z,413.00
2023-05-13T04:30:25.260Z,411.00
2023-05-13T04:31:25.469Z,411.00
2023-05-13T04:32:25.597Z,411.00
2023-05-13T04:33:25.757Z,412.00
2023-05-13T04:34:25.885Z,411.00
2023-05-13T04:35:26.130Z,413.00
2023-05-13T04:36:26.251Z,414.00
2023-05-13T04:37:26.491Z,414.00
2023-05-13T04:38:26.565Z,414.00
2023-05-13T04:39:26.680Z,417.00
2023-05-13T04:40:26.887Z,414.00
2023-05-13T04:41:26.931Z,412.00
2023-05-13T04:42:27.174Z,417.00
2023-05-13T04:43:27.240Z,417.00
2023-05-13T04:44:27.353Z,415.00
2023-05-13T04:45:27.496Z,411.00
2023-05-13T04:46:27.671Z,412.00
2023-05-13T04:47:27.774Z,411.00
2023-05-13T04:48:27.843Z,412.00
2023-05-13T04:49:27.848Z,414.00
2023-05-13T04:50:27.891Z,415.00
2023-05-13T04:51:27.914Z,413.00
2023-05-13T04:52:27.945Z,413.00
2023-05-13T04:53:27.960Z,414.00
2023-05-13T04:54:27.982Z,416.00
2023-05-13T04:55:28.091Z,416.00
2023-05-13T04:56:28.055Z,413.00
2023-05-13T04:57:28.098Z,417.00
2023-05-13T04:58:28.164Z,420.00
2023-05-13T04:59:28.197Z,419.00
2023-05-13T05:00:28.271Z,417.00
2023-05-13T05:01:28.374Z,420.00
2023-05-13T05:02:28.386Z,419.00
2023-05-13T05:03:28.411Z,418.00
2023-05-13T05:04:28.465Z,417.00
2023-05-13T05:05:28.523Z,415.00
2023-05-13T05:06:28.552Z,417.00
2023-05-13T05:07:28.592Z,420.00
2023-05-13T05:08:28.684Z,420.00
2023-05-13T05:09:28.717Z,422.00
2023-05-13T05:10:28.742Z,424.00
2023-05-13T05:11:28.805Z,421.00
2023-05-13T05:12:28.940Z,419.00
2023-05-13T05:13:29.083Z,419.00
2023-05-13T05:14:29.126Z,422.00
2023-05-13T05:15:29.193Z,422.00
2023-05-13T05:16:29.229Z,419.00
2023-05-13T05:17:29.365Z,422.00
2023-05-13T05:18:29.429Z,421.00
2023-05-13T05:19:29.423Z,422.00
2023-05-13T05:20:29.397Z,421.00
2023-05-13T05:21:29.443Z,420.00
2023-05-13T05:22:29.494Z,418.00
2023-05-13T05:23:29.551Z,419.00
2023-05-13T05:24:29.604Z,419.00
2023-05-13T05:25:29.648Z,417.00
2023-05-13T05:26:29.667Z,417.00
2023-05-13T05:27:29.723Z,417.00
2023-05-13T05:28:29.781Z,416.00
2023-05-13T05:29:29.810Z,416.00
2023-05-13T05:30:29.891Z,415.00
2023-05-13T05:31:29.980Z,415.00
2023-05-13T05:32:30.050Z,416.00
2023-05-13T05:33:30.079Z,416.00
2023-05-13T05:34:30.128Z,415.00
2023-05-13T05:35:30.182Z,414.00
2023-05-13T05:36:30.250Z,414.00
2023-05-13T05:37:30.318Z,413.00
2023-05-13T05:38:30.369Z,411.00
2023-05-13T05:39:30.430Z,411.00
2023-05-13T05:40:30.455Z,409.00
2023-05-13T05:41:30.495Z,408.00
2023-05-13T05:42:30.570Z,409.00
2023-05-13T05:43:30.629Z,410.00
2023-05-13T05:44:30.639Z,412.00
2023-05-13T05:45:30.809Z,412.00
2023-05-13T05:46:30.978Z,412.00
2023-05-13T05:47:30.772Z,415.00
2023-05-13T05:48:32.098Z,412.00
2023-05-13T05:49:30.786Z,413.00
2023-05-13T05:50:30.781Z,414.00
2023-05-13T05:51:30.789Z,414.00
2023-05-13T05:52:30.862Z,416.00
2023-05-13T05:53:30.789Z,414.00
2023-05-13T05:54:30.789Z,415.00
2023-05-13T05:55:30.777Z,414.00
2023-05-13T05:56:30.783Z,417.00
2023-05-13T05:57:30.786Z,418.00
2023-05-13T05:58:30.782Z,419.00
2023-05-13T05:59:30.774Z,420.00
2023-05-13T06:00:30.770Z,421.00
2023-05-13T06:01:30.767Z,421.00
2023-05-13T06:02:30.852Z,422.00
2023-05-13T06:03:30.840Z,423.00
2023-05-13T06:04:30.818Z,422.00
2023-05-13T06:05:30.772Z,422.00
2023-05-13T06:06:30.813Z,423.00
2023-05-13T06:07:30.752Z,423.00
2023-05-13T06:08:30.752Z,421.00
2023-05-13T06:09:30.755Z,423.00
2023-05-13T06:10:30.720Z,423.00
2023-05-13T06:11:30.722Z,422.00
2023-05-13T06:12:30.719Z,421.00
2023-05-13T06:13:30.718Z,423.00
2023-05-13T06:14:30.691Z,424.00
2023-05-13T06:15:30.684Z,424.00
2023-05-13T06:16:30.764Z,425.00
2023-05-13T06:17:30.716Z,423.00
2023-05-13T06:18:30.710Z,423.00
2023-05-13T06:19:30.670Z,423.00
2023-05-13T06:20:30.668Z,422.00
2023-05-13T06:21:30.668Z,421.00
2023-05-13T06:22:30.686Z,417.00
2023-05-13T06:23:30.661Z,412.00
2023-05-13T06:24:30.668Z,396.00
2023-05-13T06:25:30.657Z,413.00
2023-05-13T06:26:30.661Z,417.00
2023-05-13T06:27:30.662Z,420.00
2023-05-13T06:28:30.650Z,421.00
2023-05-13T06:29:30.624Z,422.00
2023-05-13T06:30:30.625Z,423.00
2023-05-13T06:31:30.640Z,425.00
2023-05-13T06:32:30.658Z,425.00
2023-05-13T06:33:30.632Z,426.00
2023-05-13T06:34:30.578Z,427.00
2023-05-13T06:35:30.666Z,428.00
2023-05-13T06:36:30.821Z,425.00
2023-05-13T06:37:30.971Z,423.00
2023-05-13T06:38:31.129Z,421.00
2023-05-13T06:39:31.275Z,419.00
2023-05-13T06:40:31.493Z,418.00
2023-05-13T06:41:31.572Z,417.00
2023-05-13T06:42:31.724Z,415.00
2023-05-13T06:43:31.860Z,415.00
2023-05-13T06:44:31.996Z,415.00
2023-05-13T06:45:32.213Z,415.00
2023-05-13T06:46:32.340Z,417.00
2023-05-13T06:47:32.706Z,417.00
2023-05-13T06:48:32.582Z,416.00
2023-05-13T06:49:32.582Z,416.00
2023-05-13T06:50:32.674Z,415.00
2023-05-13T06:51:32.602Z,415.00
2023-05-13T06:52:32.605Z,417.00
2023-05-13T06:53:32.630Z,417.00
2023-05-13T06:54:32.654Z,418.00
2023-05-13T06:55:32.758Z,417.00
2023-05-13T06:56:32.685Z,416.00
2023-05-13T06:57:41.931Z,417.00
2023-05-13T06:58:33.679Z,415.00
2023-05-13T06:59:32.679Z,414.00
2023-05-13T07:00:32.662Z,415.00
2023-05-13T07:01:32.794Z,418.00
2023-05-13T07:02:32.693Z,420.00
2023-05-13T07:03:32.649Z,420.00
2023-05-13T07:04:32.619Z,423.00
2023-05-13T07:05:32.608Z,424.00
2023-05-13T07:06:32.600Z,425.00
2023-05-13T07:07:32.624Z,425.00
2023-05-13T07:08:32.559Z,422.00
2023-05-13T07:09:32.553Z,423.00
2023-05-13T07:10:32.531Z,425.00
2023-05-13T07:11:32.506Z,423.00
2023-05-13T07:12:32.500Z,422.00
2023-05-13T07:13:32.513Z,422.00
2023-05-13T07:14:32.465Z,421.00
2023-05-13T07:15:32.479Z,420.00
2023-05-13T07:16:32.432Z,419.00
2023-05-13T07:17:32.582Z,418.00
2023-05-13T07:18:32.559Z,417.00
2023-05-13T07:19:32.463Z,420.00
2023-05-13T07:20:32.363Z,419.00
2023-05-13T07:21:32.346Z,419.00
2023-05-13T07:22:32.339Z,422.00
2023-05-13T07:23:32.317Z,424.00
2023-05-13T07:24:32.297Z,425.00
2023-05-13T07:25:32.312Z,427.00
2023-05-13T07:26:32.283Z,428.00
2023-05-13T07:27:32.275Z,423.00
2023-05-13T07:28:32.281Z,420.00
2023-05-13T07:29:32.289Z,417.00
2023-05-13T07:30:32.340Z,417.00
2023-05-13T07:31:32.329Z,418.00
2023-05-13T07:32:32.332Z,419.00
2023-05-13T07:33:32.313Z,421.00
2023-05-13T07:34:32.318Z,423.00
2023-05-13T07:35:32.324Z,422.00
2023-05-13T07:36:32.321Z,421.00
2023-05-13T07:37:32.485Z,420.00
2023-05-13T07:38:32.331Z,422.00
2023-05-13T07:39:32.346Z,419.00
2023-05-13T07:40:32.323Z,418.00
2023-05-13T07:41:32.328Z,418.00
2023-05-13T07:42:32.343Z,414.00
2023-05-13T07:43:32.431Z,415.00
2023-05-13T07:44:32.355Z,413.00
2023-05-13T07:45:32.344Z,413.00
2023-05-13T07:46:32.439Z,415.00
2023-05-13T07:47:32.371Z,414.00
2023-05-13T07:48:32.372Z,412.00
2023-05-13T07:49:32.435Z,413.00
2023-05-13T07:50:32.357Z,410.00
2023-05-13T07:51:32.363Z,408.00
2023-05-13T07:52:32.367Z,407.00
2023-05-13T07:53:32.364Z,408.00
2023-05-13T07:54:32.344Z,407.00
2023-05-13T07:55:32.468Z,406.00
2023-05-13T07:56:32.329Z,407.00
2023-05-13T07:57:32.322Z,409.00
2023-05-13T07:58:32.291Z,412.00
2023-05-13T07:59:32.288Z,412.00
2023-05-13T08:00:32.281Z,412.00
2023-05-13T08:01:32.238Z,413.00
2023-05-13T08:02:32.322Z,413.00
2023-05-13T08:03:32.357Z,415.00
2023-05-13T08:04:32.376Z,415.00
2023-05-13T08:05:32.243Z,414.00
2023-05-13T08:06:32.818Z,413.00
2023-05-13T08:07:32.216Z,412.00
2023-05-13T08:08:32.219Z,412.00
2023-05-13T08:09:32.180Z,413.00
2023-05-13T08:10:32.162Z,416.00
2023-05-13T08:11:32.162Z,414.00
2023-05-13T08:12:32.132Z,415.00
2023-05-13T08:14:32.116Z,413.00
2023-05-13T08:15:32.103Z,415.00
2023-05-13T08:16:32.149Z,415.00
2023-05-13T08:17:32.147Z,415.00
2023-05-13T08:18:32.101Z,415.00
2023-05-13T08:19:32.079Z,415.00
2023-05-13T08:20:32.033Z,412.00
2023-05-13T08:21:32.063Z,416.00
2023-05-13T08:22:32.072Z,415.00
2023-05-13T08:23:44.077Z,415.00
2023-05-13T08:24:33.095Z,416.00
2023-05-13T08:25:32.047Z,417.00
2023-05-13T08:26:32.024Z,417.00
2023-05-13T08:27:32.021Z,418.00
2023-05-13T08:28:31.995Z,419.00
2023-05-13T08:29:31.984Z,419.00
2023-05-13T08:30:31.965Z,420.00
2023-05-13T08:31:31.982Z,418.00
2023-05-13T08:32:31.965Z,418.00
2023-05-13T08:33:31.941Z,419.00
2023-05-13T08:34:31.915Z,418.00
2023-05-13T08:35:31.907Z,420.00
2023-05-13T08:36:31.891Z,418.00
2023-05-13T08:37:31.973Z,418.00
2023-05-13T08:38:31.951Z,420.00
2023-05-13T08:39:31.999Z,419.00
2023-05-13T08:40:32.051Z,417.00
2023-05-13T08:41:32.085Z,417.00
2023-05-13T08:42:32.125Z,417.00
2023-05-13T08:43:32.200Z,418.00
2023-05-13T08:44:32.237Z,420.00
2023-05-13T08:45:32.283Z,420.00
2023-05-13T08:46:32.382Z,419.00
2023-05-13T08:47:33.315Z,418.00
2023-05-13T08:48:32.425Z,418.00
2023-05-13T08:49:32.483Z,418.00
2023-05-13T08:50:32.528Z,416.00
2023-05-13T08:51:32.569Z,416.00
2023-05-13T08:52:32.624Z,417.00
2023-05-13T08:53:32.663Z,418.00
2023-05-13T08:54:32.698Z,417.00
2023-05-13T08:55:32.681Z,419.00
2023-05-13T08:56:32.692Z,421.00
2023-05-13T08:57:32.675Z,423.00
2023-05-13T08:58:32.679Z,421.00
2023-05-13T08:59:32.686Z,422.00
2023-05-13T09:00:32.695Z,423.00
2023-05-13T09:01:32.802Z,425.00
2023-05-13T09:02:32.760Z,423.00
2023-05-13T09:03:32.717Z,422.00
2023-05-13T09:04:32.774Z,422.00
2023-05-13T09:05:32.687Z,423.00
2023-05-13T09:06:32.682Z,427.00
2023-05-13T09:07:32.688Z,426.00
2023-05-13T09:08:32.741Z,424.00
2023-05-13T09:09:32.711Z,425.00
2023-05-13T09:10:32.721Z,425.00
2023-05-13T09:11:32.763Z,422.00
2023-05-13T09:12:32.797Z,419.00
2023-05-13T09:13:32.831Z,420.00
2023-05-13T09:14:32.899Z,420.00
2023-05-13T09:15:33.063Z,420.00
2023-05-13T09:16:32.999Z,423.00
2023-05-13T09:17:32.996Z,421.00
2023-05-13T09:18:33.116Z,420.00
2023-05-13T09:19:33.165Z,419.00
2023-05-13T09:20:33.126Z,420.00
2023-05-13T09:21:33.154Z,420.00
2023-05-13T09:22:33.212Z,420.00
2023-05-13T09:23:33.242Z,421.00
2023-05-13T09:24:33.286Z,421.00
2023-05-13T09:25:33.336Z,421.00
2023-05-13T09:26:33.351Z,422.00
2023-05-13T09:27:33.407Z,423.00
2023-05-13T09:28:33.436Z,424.00
2023-05-13T09:29:33.499Z,421.00
2023-05-13T09:30:33.532Z,421.00
2023-05-13T09:31:33.623Z,419.00
2023-05-13T09:32:33.589Z,418.00
2023-05-13T09:33:33.572Z,418.00
2023-05-13T09:34:33.628Z,420.00
2023-05-13T09:35:33.677Z,421.00
2023-05-13T09:36:33.712Z,419.00
2023-05-13T09:37:33.743Z,418.00
2023-05-13T09:38:33.776Z,417.00
2023-05-13T09:39:34.217Z,414.00
2023-05-13T09:40:33.851Z,413.00
2023-05-13T09:41:33.898Z,418.00
2023-05-13T09:42:33.935Z,419.00
2023-05-13T09:43:33.985Z,419.00
2023-05-13T09:44:34.023Z,418.00
2023-05-13T09:45:34.067Z,416.00
2023-05-13T09:46:34.145Z,416.00
2023-05-13T09:47:34.194Z,419.00
2023-05-13T09:48:34.186Z,420.00
2023-05-13T09:49:34.222Z,420.00
2023-05-13T09:50:34.273Z,421.00
2023-05-13T09:51:34.292Z,420.00
2023-05-13T09:52:34.325Z,415.00
2023-05-13T09:53:34.357Z,417.00
2023-05-13T09:54:34.352Z,415.00
2023-05-13T09:55:34.405Z,416.00
2023-05-13T09:56:34.399Z,417.00
2023-05-13T09:57:34.440Z,415.00
2023-05-13T09:58:34.476Z,415.00
2023-05-13T09:59:34.524Z,419.00
2023-05-13T10:00:36.693Z,413.00
2023-05-13T10:01:34.637Z,412.00
2023-05-13T10:02:34.574Z,413.00
2023-05-13T10:03:34.605Z,418.00
2023-05-13T10:04:34.460Z,419.00
2023-05-13T10:05:34.441Z,414.00
2023-05-13T10:06:34.439Z,412.00
2023-05-13T10:07:34.404Z,412.00
2023-05-13T10:08:34.387Z,415.00
2023-05-13T10:09:34.359Z,414.00
2023-05-13T10:10:34.333Z,413.00
2023-05-13T10:11:34.321Z,410.00
2023-05-13T10:12:34.282Z,407.00
2023-05-13T10:13:34.274Z,407.00
2023-05-13T10:14:34.229Z,408.00
2023-05-13T10:15:34.235Z,410.00
2023-05-13T10:16:34.204Z,408.00
2023-05-13T10:17:34.198Z,410.00
2023-05-13T10:18:34.218Z,412.00
2023-05-13T10:19:34.120Z,412.00
2023-05-13T10:20:34.076Z,411.00
2023-05-13T10:21:34.064Z,410.00
2023-05-13T10:22:34.026Z,411.00
2023-05-13T10:23:34.004Z,410.00
2023-05-13T10:24:34.424Z,411.00
2023-05-13T10:25:33.959Z,410.00
2023-05-13T10:26:33.940Z,409.00
2023-05-13T10:27:33.982Z,410.00
2023-05-13T10:28:34.018Z,409.00
2023-05-13T10:29:34.038Z,408.00
2023-05-13T10:30:34.132Z,410.00
2023-05-13T10:31:34.152Z,409.00
2023-05-13T10:32:34.209Z,408.00
2023-05-13T10:33:34.203Z,409.00
2023-05-13T10:34:34.237Z,408.00
2023-05-13T10:35:37.046Z,412.00
2023-05-13T10:36:34.281Z,409.00
2023-05-13T10:37:34.225Z,406.00
2023-05-13T10:38:34.201Z,406.00
2023-05-13T10:39:34.186Z,406.00
2023-05-13T10:40:34.171Z,406.00
2023-05-13T10:41:34.135Z,408.00
2023-05-13T10:42:34.096Z,410.00
2023-05-13T10:43:34.088Z,410.00
2023-05-13T10:44:34.053Z,410.00
2023-05-13T10:45:34.032Z,411.00
2023-05-13T10:46:34.231Z,411.00
2023-05-13T10:47:34.084Z,411.00
2023-05-13T10:48:34.008Z,410.00
2023-05-13T10:49:33.930Z,412.00
2023-05-13T10:50:33.914Z,411.00
2023-05-13T10:51:33.926Z,409.00
2023-05-13T10:52:33.875Z,409.00
2023-05-13T10:53:33.863Z,409.00
2023-05-13T10:54:33.838Z,409.00
2023-05-13T10:55:33.813Z,411.00
2023-05-13T10:56:33.793Z,412.00
2023-05-13T10:57:33.797Z,412.00
2023-05-13T10:58:33.761Z,411.00
2023-05-13T10:59:33.706Z,411.00
2023-05-13T11:00:33.702Z,411.00
2023-05-13T11:01:33.712Z,410.00
2023-05-13T11:02:33.695Z,409.00
2023-05-13T11:03:33.756Z,408.00
2023-05-13T11:04:33.711Z,406.00
2023-05-13T11:05:33.747Z,405.00
2023-05-13T11:06:33.796Z,406.00
2023-05-13T11:07:33.836Z,415.00
2023-05-13T11:08:33.864Z,417.00
2023-05-13T11:09:33.910Z,416.00
2023-05-13T11:10:33.936Z,410.00
2023-05-13T11:11:34.009Z,406.00
2023-05-13T11:12:34.016Z,404.00
2023-05-13T11:13:34.060Z,404.00
2023-05-13T11:14:34.089Z,403.00
2023-05-13T11:15:34.129Z,402.00
2023-05-13T11:16:34.207Z,388.00
2023-05-13T11:17:34.296Z,403.00
2023-05-13T11:18:34.251Z,410.00
2023-05-13T11:19:34.266Z,408.00
2023-05-13T11:20:48.712Z,406.00
2023-05-13T11:21:35.280Z,405.00
2023-05-13T11:22:34.240Z,405.00
2023-05-13T11:23:34.206Z,402.00
2023-05-13T11:24:34.200Z,404.00
2023-05-13T11:25:34.171Z,408.00
2023-05-13T11:26:34.149Z,409.00
2023-05-13T11:27:34.193Z,409.00
2023-05-13T11:28:34.829Z,411.00
2023-05-13T11:29:34.067Z,408.00
2023-05-13T11:30:34.034Z,411.00
2023-05-13T11:31:34.105Z,409.00
2023-05-13T11:32:34.170Z,412.00
2023-05-13T11:33:34.144Z,414.00
2023-05-13T11:34:34.182Z,414.00
2023-05-13T11:35:34.214Z,416.00
2023-05-13T11:36:34.232Z,418.00
2023-05-13T11:37:34.277Z,416.00
2023-05-13T11:38:34.319Z,413.00
2023-05-13T11:39:34.345Z,412.00
2023-05-13T11:40:34.432Z,412.00
2023-05-13T11:41:34.421Z,411.00
2023-05-13T11:42:34.469Z,413.00
2023-05-13T11:43:34.871Z,412.00
2023-05-13T11:44:34.552Z,411.00
2023-05-13T11:45:34.658Z,410.00
2023-05-13T11:46:34.619Z,411.00
2023-05-13T11:47:34.679Z,410.00
2023-05-13T11:48:34.728Z,409.00
2023-05-13T11:49:34.711Z,410.00
2023-05-13T11:50:34.747Z,407.00
2023-05-13T11:51:34.816Z,402.00
2023-05-13T11:52:34.838Z,410.00
2023-05-13T11:53:34.879Z,415.00
2023-05-13T11:54:34.902Z,410.00
2023-05-13T11:55:34.944Z,410.00
2023-05-13T11:56:34.986Z,410.00
2023-05-13T11:57:35.035Z,404.00
2023-05-13T11:58:35.066Z,406.00
2023-05-13T11:59:45.238Z,407.00
2023-05-13T12:00:36.108Z,409.00
2023-05-13T12:01:35.034Z,406.00
2023-05-13T12:02:35.217Z,403.00
2023-05-13T12:03:35.043Z,401.00
2023-05-13T12:04:35.026Z,398.00
2023-05-13T12:05:35.055Z,412.00
2023-05-13T12:06:34.910Z,414.00
2023-05-13T12:07:34.893Z,414.00
2023-05-13T12:08:34.835Z,413.00
2023-05-13T12:09:34.872Z,406.00
2023-05-13T12:10:34.923Z,408.00
2023-05-13T12:11:34.939Z,408.00
2023-05-13T12:12:34.960Z,405.00
2023-05-13T12:13:34.977Z,406.00
2023-05-13T12:14:34.981Z,399.00
2023-05-13T12:15:35.061Z,409.00
2023-05-13T12:16:35.064Z,398.00
2023-05-13T12:17:34.955Z,405.00
2023-05-13T12:18:34.954Z,428.00
2023-05-13T12:19:34.923Z,408.00
2023-05-13T12:20:34.959Z,406.00
2023-05-13T12:21:35.038Z,406.00
2023-05-13T12:22:35.042Z,407.00
2023-05-13T12:23:35.100Z,408.00
2023-05-13T12:24:35.037Z,410.00
2023-05-13T12:25:35.055Z,414.00
2023-05-13T12:26:34.993Z,417.00
2023-05-13T12:27:34.946Z,414.00
2023-05-13T12:28:34.912Z,417.00
2023-05-13T12:29:34.879Z,411.00